Time;durP1;ratioP1;P1;durP2;ratioP2;P2;SDS_P1;SDS_P2;PMS_P1;PMS_P2;Temp;Humidity;BMP_temperature;BMP_pressure;BME280_temperature;BME280_humidity;BME280_pressure;Samples;Min_cycle;Max_cycle;Signal;HPM_P1;HPM_P2
2023/09/01 06:56:22;;;;;;;15.90;9.88;;;;;;;14.51;100.00;100922.53;5150232;27;20425;-70
2023/09/01 06:58:47;;;;;;;15.93;10.38;;;;;;;14.52;100.00;100926.94;5151729;27;20483;-73
2023/09/01 07:01:15;;;;;;;17.70;10.25;;;;;;;14.52;100.00;100917.91;5149267;27;20034;-71
2023/09/01 07:03:40;;;;;;;22.42;11.18;;;;;;;14.55;100.00;100914.69;5151470;27;20019;-71
2023/09/01 07:06:06;;;;;;;15.23;9.95;;;;;;;14.58;100.00;100916.91;5151523;27;20393;-72
2023/09/01 07:08:32;;;;;;;17.08;10.63;;;;;;;14.58;100.00;100913.38;5151285;27;20049;-71
2023/09/01 07:11:01;;;;;;;14.77;10.25;;;;;;;14.59;100.00;100913.13;5135802;27;20019;-70
2023/09/01 07:13:27;;;;;;;17.08;9.75;;;;;;;14.62;100.00;100898.22;5130309;28;20035;-72
2023/09/01 07:15:52;;;;;;;17.42;10.43;;;;;;;14.66;100.00;100900.19;5130720;28;20031;-71
2023/09/01 07:18:17;;;;;;;15.10;10.02;;;;;;;14.68;100.00;100900.75;5130710;28;20031;-71
2023/09/01 07:20:43;;;;;;;16.75;10.10;;;;;;;14.70;100.00;100900.50;5130652;28;20078;-70
2023/09/01 07:23:08;;;;;;;20.00;10.93;;;;;;;14.69;100.00;100909.75;5127691;27;20106;-70
2023/09/01 07:25:34;;;;;;;15.82;10.43;;;;;;;14.69;100.00;100910.56;5128794;27;20110;-75
2023/09/01 07:27:59;;;;;;;15.98;10.30;;;;;;;14.69;100.00;100905.13;5130142;27;20031;-70
2023/09/01 07:30:25;;;;;;;14.82;10.32;;;;;;;14.73;100.00;100908.16;5141113;27;20034;-70
2023/09/01 07:32:50;;;;;;;16.25;9.88;;;;;;;14.73;100.00;100905.44;5128338;27;20051;-70
2023/09/01 07:35:15;;;;;;;14.80;10.25;;;;;;;14.75;100.00;100900.59;5130119;27;20111;-70
2023/09/01 07:37:41;;;;;;;15.00;9.80;;;;;;;14.79;100.00;100903.63;5130062;27;20092;-70
2023/09/01 07:40:07;;;;;;;16.35;10.07;;;;;;;14.75;100.00;100897.88;5130285;27;20027;-70
2023/09/01 07:42:33;;;;;;;13.63;10.25;;;;;;;14.76;100.00;100901.41;5129986;27;20073;-70
2023/09/01 07:44:58;;;;;;;16.92;10.27;;;;;;;14.82;100.00;100897.66;5130194;27;20145;-70
2023/09/01 07:47:23;;;;;;;15.50;10.70;;;;;;;14.82;100.00;100903.13;5129939;27;20106;-70
2023/09/01 07:49:49;;;;;;;14.70;9.75;;;;;;;14.84;100.00;100901.78;5130087;27;20366;-70
2023/09/01 07:52:14;;;;;;;14.65;9.82;;;;;;;14.87;100.00;100906.75;5129662;27;20055;-70
2023/09/01 07:54:39;;;;;;;14.55;10.20;;;;;;;14.92;100.00;100905.16;5129389;27;20127;-70
2023/09/01 07:57:05;;;;;;;13.85;9.57;;;;;;;14.89;100.00;100909.22;5129920;28;20015;-69
2023/09/01 07:59:30;;;;;;;13.80;10.13;;;;;;;14.87;100.00;100903.16;5129693;27;20116;-70
2023/09/01 08:01:55;;;;;;;12.52;10.27;;;;;;;14.87;100.00;100908.63;5127380;28;20015;-70
2023/09/01 08:04:21;;;;;;;13.18;10.30;;;;;;;14.89;100.00;100909.22;5130111;28;20035;-70
2023/09/01 08:06:47;;;;;;;15.10;10.10;;;;;;;14.86;100.00;100917.88;5121003;28;20055;-71
2023/09/01 08:09:12;;;;;;;13.30;9.93;;;;;;;14.91;100.00;100917.13;5116042;28;20031;-71
2023/09/01 08:11:37;;;;;;;13.57;9.60;;;;;;;14.94;100.00;100919.34;5115772;28;20028;-71
2023/09/01 08:14:03;;;;;;;14.70;10.45;;;;;;;14.90;100.00;100919.03;5116141;28;20020;-71
2023/09/01 08:16:28;;;;;;;11.68;9.60;;;;;;;14.91;100.00;100926.13;5115736;28;20026;-71
2023/09/01 08:18:58;;;;;;;10.45;9.25;;;;;;;14.94;100.00;100925.63;5115953;28;20370;-70
2023/09/01 08:21:24;;;;;;;11.85;9.02;;;;;;;14.99;100.00;100927.56;5114575;28;20024;-70
2023/09/01 08:23:50;;;;;;;12.75;9.15;;;;;;;15.01;100.00;100928.97;5115505;28;20107;-70
2023/09/01 08:26:15;;;;;;;12.73;9.15;;;;;;;14.99;100.00;100935.75;5115723;28;20019;-70
2023/09/01 08:28:41;;;;;;;11.65;8.63;;;;;;;15.00;100.00;100937.41;5114024;28;20406;-70
2023/09/01 08:31:06;;;;;;;11.48;8.85;;;;;;;15.04;100.00;100931.19;5115585;28;20068;-70
2023/09/01 08:33:32;;;;;;;10.20;8.43;;;;;;;15.03;100.00;100932.28;5115323;28;20054;-71
2023/09/01 08:36:04;;;;;;;10.10;9.00;;;;;;;15.02;100.00;100940.69;5115166;27;20020;-70
2023/09/01 08:38:30;;;;;;;10.43;9.00;;;;;;;15.03;100.00;100943.16;5114931;28;20027;-70
2023/09/01 08:41:00;;;;;;;13.55;9.52;;;;;;;15.04;100.00;100952.19;5114036;28;20022;-70
2023/09/01 08:43:28;;;;;;;12.52;9.30;;;;;;;15.04;100.00;100954.91;5115228;28;20011;-70
2023/09/01 08:45:54;;;;;;;11.80;9.52;;;;;;;15.03;100.00;100956.78;5115268;28;20023;-70
2023/09/01 08:48:20;;;;;;;11.57;8.93;;;;;;;15.08;100.00;100961.47;5115028;28;20374;-70
2023/09/01 08:50:46;;;;;;;10.25;9.15;;;;;;;15.06;100.00;100966.38;5114950;28;20031;-70
2023/09/01 08:53:11;;;;;;;11.05;9.20;;;;;;;15.10;100.00;100964.81;5115166;28;20042;-70
2023/09/01 08:55:37;;;;;;;9.80;8.73;;;;;;;15.12;100.00;100967.28;5114411;28;20046;-70
2023/09/01 08:58:03;;;;;;;11.85;8.63;;;;;;;15.12;100.00;100962.63;5115047;28;20026;-70
2023/09/01 09:00:29;;;;;;;10.52;8.90;;;;;;;15.12;100.00;100956.38;5113160;28;20023;-70
2023/09/01 09:02:55;;;;;;;12.07;8.85;;;;;;;15.15;100.00;100961.31;5114756;27;20449;-70
2023/09/01 09:05:22;;;;;;;11.73;8.73;;;;;;;15.15;100.00;100966.78;5114974;28;20031;-70
2023/09/01 09:08:07;;;;;;;9.45;8.55;;;;;;;15.17;100.00;100970.91;5114804;28;20028;-70
2023/09/01 09:10:34;;;;;;;10.57;9.40;;;;;;;15.16;100.00;100974.69;5114684;28;20027;-70
2023/09/01 09:13:00;;;;;;;10.82;8.85;;;;;;;15.18;100.00;100971.72;5114806;28;20261;-70
2023/09/01 09:15:25;;;;;;;14.20;9.50;;;;;;;15.20;100.00;100966.81;5114398;28;20550;-71
2023/09/01 09:17:51;;;;;;;12.98;10.23;;;;;;;15.20;100.00;100967.66;5113975;28;20030;-71
2023/09/01 09:20:18;;;;;;;13.98;9.75;;;;;;;15.21;100.00;100971.22;5113362;28;20064;-70
2023/09/01 09:22:59;;;;;;;11.65;9.75;;;;;;;15.21;100.00;100966.56;5112996;28;20020;-70
2023/09/01 09:25:25;;;;;;;14.30;10.13;;;;;;;15.24;100.00;100960.59;5114493;28;20023;-70
2023/09/01 09:27:51;;;;;;;9.70;8.70;;;;;;;15.25;100.00;100966.91;5114138;28;20471;-71
2023/09/01 09:30:17;;;;;;;13.05;9.45;;;;;;;15.26;100.00;100968.53;5114699;28;20030;-71
2023/09/01 09:32:42;;;;;;;9.23;8.13;;;;;;;15.24;100.00;100976.16;5114171;28;20024;-71
2023/09/01 09:35:10;;;;;;;9.77;7.82;;;;;;;15.25;100.00;100977.81;5114251;28;20362;-71
2023/09/01 09:37:37;;;;;;;8.32;7.45;;;;;;;15.24;100.00;100978.88;5114032;28;20029;-71
2023/09/01 09:40:13;;;;;;;10.05;8.27;;;;;;;15.27;100.00;100989.28;5114248;28;20039;-70
2023/09/01 09:42:39;;;;;;;9.82;7.47;;;;;;;15.28;100.00;100987.38;5113599;28;20407;-70
2023/09/01 09:45:21;;;;;;;10.50;7.60;;;;;;;15.30;100.00;100987.97;5112795;28;20108;-71
2023/09/01 09:47:48;;;;;;;7.78;6.80;;;;;;;15.30;100.00;100991.50;5113885;28;20106;-70
2023/09/01 09:50:16;;;;;;;8.07;7.28;;;;;;;15.30;100.00;100986.03;5112753;28;20362;-70
2023/09/01 09:52:42;;;;;;;8.60;7.63;;;;;;;15.33;100.00;100988.25;5113873;28;20031;-70
2023/09/01 09:55:11;;;;;;;7.63;6.72;;;;;;;15.34;100.00;100987.19;5113906;28;20039;-71
2023/09/01 09:57:40;;;;;;;8.73;7.13;;;;;;;15.34;100.00;100981.75;5113450;28;20363;-71
2023/09/01 10:00:10;;;;;;;8.25;6.50;;;;;;;15.42;100.00;100978.56;5113982;28;20158;-70
2023/09/01 10:02:47;;;;;;;7.32;6.65;;;;;;;15.40;100.00;100980.72;5111047;28;20058;-70
2023/09/01 10:05:15;;;;;;;7.28;6.57;;;;;;;15.45;100.00;100966.31;5113851;28;20059;-69
2023/09/01 10:07:42;;;;;;;7.43;6.75;;;;;;;15.46;100.00;100969.88;5113520;28;20072;-71
2023/09/01 10:10:09;;;;;;;7.35;6.63;;;;;;;15.50;100.00;100960.09;5113658;28;20478;-71
2023/09/01 10:12:36;;;;;;;6.97;6.15;;;;;;;15.49;100.00;100966.63;5112164;28;20027;-71
2023/09/01 10:15:03;;;;;;;6.70;5.65;;;;;;;15.49;100.00;100972.06;5113490;28;20074;-71
2023/09/01 10:17:32;;;;;;;5.85;5.35;;;;;;;15.49;100.00;100972.06;5113536;28;20043;-71
2023/09/01 10:20:00;;;;;;;4.93;4.53;;;;;;;15.51;100.00;100961.75;5113487;28;20098;-71
2023/09/01 10:22:25;;;;;;;6.13;5.25;;;;;;;15.56;100.00;100967.25;5113187;28;20074;-71
2023/09/01 10:25:17;;;;;;;6.18;5.38;;;;;;;15.58;100.00;100976.84;5112894;28;20027;-71
2023/09/01 10:28:11;;;;;;;5.97;4.47;;;;;;;15.60;100.00;100976.59;5111904;28;20121;-71
2023/09/01 10:30:41;;;;;;;5.25;4.75;;;;;;;15.59;100.00;100977.66;5111376;28;20027;-71
2023/09/01 10:33:10;;;;;;;5.38;4.88;;;;;;;15.64;100.00;100971.44;5112959;28;20020;-71
2023/09/01 10:35:37;;;;;;;4.57;4.13;;;;;;;15.68;100.00;100970.66;5111786;28;20077;-70
2023/09/01 10:38:14;;;;;;;5.00;4.43;;;;;;;15.70;100.00;100979.44;5113022;28;20450;-71
2023/09/01 10:40:47;;;;;;;5.75;3.80;;;;;;;15.72;100.00;100980.00;5112903;28;20034;-72
2023/09/01 10:43:13;;;;;;;5.63;4.10;;;;;;;15.80;100.00;100980.66;5112976;28;20024;-71
2023/09/01 10:45:39;;;;;;;6.35;4.20;;;;;;;15.79;100.00;100990.72;5112843;28;20019;-71
2023/09/01 10:48:11;;;;;;;5.75;4.93;;;;;;;15.88;100.00;100996.53;5111573;28;20467;-71
2023/09/01 10:50:39;;;;;;;4.15;3.85;;;;;;;15.95;100.00;100989.00;5112608;28;20343;-72
2023/09/01 10:53:28;;;;;;;5.45;4.65;;;;;;;16.02;100.00;100997.81;5111786;28;20015;-70
2023/09/01 10:56:10;;;;;;;4.25;3.90;;;;;;;16.02;100.00;101003.25;5112352;28;20039;-71
2023/09/01 10:58:44;;;;;;;5.90;3.80;;;;;;;16.03;100.00;100998.59;5112444;28;20425;-72
2023/09/01 11:01:30;;;;;;;3.92;3.53;;;;;;;16.12;100.00;101002.53;5110513;28;20034;-68
2023/09/01 11:04:16;;;;;;;4.20;3.80;;;;;;;16.17;100.00;101010.78;5112788;28;20031;-70
2023/09/01 11:06:56;;;;;;;4.05;3.60;;;;;;;16.21;100.00;100994.69;5110976;28;20028;-70
2023/09/01 11:09:34;;;;;;;3.80;3.50;;;;;;;16.22;100.00;100997.16;5111651;28;20028;-70
2023/09/01 11:12:09;;;;;;;3.80;3.40;;;;;;;16.26;100.00;100992.00;5112662;28;20495;-73
2023/09/01 11:14:36;;;;;;;3.10;2.90;;;;;;;16.32;100.00;100990.97;5112562;28;20054;-70
2023/09/01 11:17:04;;;;;;;3.05;2.85;;;;;;;16.40;100.00;100987.75;5111591;28;20047;-71
2023/09/01 11:19:32;;;;;;;3.38;3.10;;;;;;;16.44;100.00;100988.03;5112811;28;20049;-71
2023/09/01 11:21:58;;;;;;;3.35;3.00;;;;;;;16.50;100.00;100991.66;5112424;28;20099;-71
2023/09/01 11:24:24;;;;;;;3.42;3.10;;;;;;;16.51;100.00;100994.13;5112566;28;20403;-70
2023/09/01 11:26:50;;;;;;;3.20;2.90;;;;;;;16.53;100.00;100988.41;5112406;28;20099;-71
2023/09/01 11:29:16;;;;;;;3.13;2.92;;;;;;;16.56;100.00;100991.44;5112485;28;20068;-71
2023/09/01 11:31:42;;;;;;;3.40;3.20;;;;;;;16.62;100.00;100997.75;5111086;28;20051;-71
2023/09/01 11:34:09;;;;;;;2.80;2.60;;;;;;;16.60;100.00;101002.66;5112455;28;20032;-70
2023/09/01 11:36:43;;;;;;;3.08;2.53;;;;;;;16.64;100.00;100996.41;5112588;28;20019;-70
2023/09/01 11:39:09;;;;;;;2.80;2.60;;;;;;;16.72;100.00;100999.75;5112415;28;20454;-71
2023/09/01 11:41:35;;;;;;;3.60;3.25;;;;;;;16.80;100.00;101005.56;5112407;28;20030;-71
2023/09/01 11:44:00;;;;;;;2.70;2.50;;;;;;;16.88;100.00;101019.81;5115020;28;20016;-71
2023/09/01 11:46:49;;;;;;;;;;;;;;;;;;;;;
2023/09/01 11:49:18;;;;;;;2.20;2.00;;;;;;;16.97;100.00;101012.78;5116460;28;20026;-73
2023/09/01 11:51:44;;;;;;;2.92;2.40;;;;;;;17.12;100.00;101022.97;5116316;28;20015;-71
2023/09/01 11:54:09;;;;;;;2.50;2.30;;;;;;;17.20;100.00;101022.50;5115793;27;20088;-73
2023/09/01 11:56:34;;;;;;;2.25;2.10;;;;;;;17.34;100.00;101022.81;5116106;28;20070;-72
2023/09/01 11:59:00;;;;;;;2.08;1.98;;;;;;;17.35;100.00;101029.97;5116105;28;20358;-71
2023/09/01 12:01:35;;;;;;;2.45;2.03;;;;;;;17.33;100.00;101035.69;5113425;28;20039;-70
2023/09/01 12:04:08;;;;;;;4.63;2.90;;;;;;;17.30;100.00;101043.59;5115658;28;20019;-72
2023/09/01 12:06:39;;;;;;;3.20;2.90;;;;;;;17.35;100.00;101052.66;5114778;28;20030;-72
2023/09/01 12:09:12;;;;;;;2.40;2.20;;;;;;;17.30;100.00;101046.31;5116063;28;20107;-71
2023/09/01 12:11:54;;;;;;;3.10;2.60;;;;;;;17.36;100.00;101048.00;5115654;28;20019;-72
2023/09/01 12:14:28;;;;;;;2.88;2.63;;;;;;;17.35;100.00;101047.19;5115888;28;20061;-71
2023/09/01 12:16:54;;;;;;;3.70;2.80;;;;;;;17.38;100.00;101055.94;5115643;28;20027;-71
2023/09/01 12:19:24;;;;;;;4.97;3.10;;;;;;;17.47;100.00;101059.84;5114447;28;20023;-72
2023/09/01 12:21:50;;;;;;;3.05;2.85;;;;;;;17.52;100.00;101057.91;5115530;27;20023;-73
2023/09/01 12:24:16;;;;;;;2.67;2.47;;;;;;;17.59;100.00;101057.69;5114484;28;20034;-71
2023/09/01 12:26:41;;;;;;;2.83;2.63;;;;;;;17.61;100.00;101062.91;5113925;28;20451;-71
2023/09/01 12:29:07;;;;;;;2.08;1.98;;;;;;;17.61;100.00;101071.09;5115543;28;20124;-71
2023/09/01 12:31:32;;;;;;;2.45;2.25;;;;;;;17.71;100.00;101071.97;5115397;28;20019;-71
2023/09/01 12:33:57;;;;;;;2.20;2.00;;;;;;;17.81;100.00;101073.91;5115114;28;20408;-72
2023/09/01 12:36:22;;;;;;;2.15;2.05;;;;;;;17.86;100.00;101073.94;5115185;28;20076;-71
2023/09/01 12:38:48;;;;;;;2.22;2.10;;;;;;;17.92;100.00;101071.25;5114146;28;20027;-71
2023/09/01 12:41:13;;;;;;;2.10;2.00;;;;;;;17.97;100.00;101074.00;5115161;28;20451;-72
2023/09/01 12:43:39;;;;;;;2.35;2.25;;;;;;;18.13;100.00;101075.72;5115404;28;20016;-71
2023/09/01 12:46:05;;;;;;;2.47;2.10;;;;;;;18.29;100.00;101082.03;5115020;28;20028;-72
2023/09/01 12:48:31;;;;;;;2.28;2.17;;;;;;;18.39;100.00;101079.31;5115000;28;20024;-71
2023/09/01 12:50:56;;;;;;;2.40;2.25;;;;;;;18.52;100.00;101091.63;5113516;28;20016;-72
2023/09/01 12:53:22;;;;;;;2.47;2.30;;;;;;;18.69;100.00;101090.56;5113754;28;20016;-72
2023/09/01 12:55:47;;;;;;;2.58;2.47;;;;;;;18.64;100.00;101093.31;5114591;27;20123;-72
2023/09/01 12:58:13;;;;;;;3.88;2.60;;;;;;;18.52;100.00;101102.59;5115103;28;20354;-72
2023/09/01 13:00:39;;;;;;;3.67;2.50;;;;;;;18.55;100.00;101102.03;5111236;28;20042;-71
2023/09/01 13:03:04;;;;;;;2.92;2.72;;;;;;;18.59;100.00;101105.09;5113214;28;20455;-70
2023/09/01 13:05:30;;;;;;;3.28;3.00;;;;;;;18.52;100.00;101097.13;5113563;28;20020;-71
2023/09/01 13:07:57;;;;;;;3.30;3.08;;;;;;;18.39;100.00;101103.16;5113096;28;20344;-71
2023/09/01 13:10:22;;;;;;;3.22;2.80;;;;;;;18.51;100.00;101105.59;5114613;28;20042;-71
2023/09/01 13:12:48;;;;;;;2.72;2.25;;;;;;;18.72;100.00;101110.03;5114425;28;20522;-71
2023/09/01 13:15:14;;;;;;;2.42;2.33;;;;;;;18.93;100.00;101107.31;5113331;28;20011;-71
2023/09/01 13:17:41;;;;;;;2.92;2.72;;;;;;;19.11;100.00;101108.66;5114449;27;20042;-71
2023/09/01 13:20:07;;;;;;;3.88;3.03;;;;;;;19.27;100.00;101124.00;5114490;28;20034;-72
2023/09/01 13:22:33;;;;;;;3.65;2.63;;;;;;;19.21;100.00;101116.06;5114350;28;20019;-71
2023/09/01 13:24:58;;;;;;;2.17;2.08;;;;;;;19.34;100.00;101114.66;5114156;27;20042;-72
2023/09/01 13:27:23;;;;;;;2.13;2.03;;;;;;;19.33;100.00;101121.28;5113005;28;20455;-72
2023/09/01 13:29:49;;;;;;;2.03;1.92;;;;;;;19.37;100.00;101112.19;5112812;28;20023;-71
2023/09/01 13:32:15;;;;;;;1.88;1.77;;;;;;;19.44;100.00;101118.19;5114162;28;20482;-71
2023/09/01 13:34:41;;;;;;;1.80;1.70;;;;;;;19.37;100.00;101123.19;5114402;28;20450;-71
2023/09/01 13:37:11;;;;;;;1.75;1.65;;;;;;;19.41;100.00;101123.44;5112882;28;20396;-71
2023/09/01 13:39:37;;;;;;;3.25;1.63;;;;;;;19.57;100.00;101116.00;5112731;28;20023;-71
2023/09/01 13:42:02;;;;;;;1.80;1.70;;;;;;;19.61;100.00;101128.88;5113666;28;20023;-71
2023/09/01 13:44:29;;;;;;;2.17;1.85;;;;;;;19.64;100.00;101122.00;5113808;28;20474;-72
2023/09/01 13:46:54;;;;;;;2.50;1.90;;;;;;;19.60;100.00;101127.22;5113657;28;20076;-71
2023/09/01 13:49:20;;;;;;;1.90;1.80;;;;;;;19.61;100.00;101122.53;5112814;28;20098;-72
2023/09/01 13:51:45;;;;;;;1.83;1.73;;;;;;;19.86;100.00;101124.41;5113805;28;20036;-72
2023/09/01 13:54:10;;;;;;;1.67;1.58;;;;;;;20.10;100.00;101129.28;5114152;28;20054;-73
2023/09/01 13:56:36;;;;;;;2.08;1.98;;;;;;;20.11;100.00;101123.50;5112317;28;20470;-72
2023/09/01 13:59:01;;;;;;;1.90;1.80;;;;;;;20.36;100.00;101127.19;5113694;28;20022;-71
2023/09/01 14:01:27;;;;;;;2.20;2.10;;;;;;;20.35;100.00;101120.03;5111309;28;20435;-71
2023/09/01 14:03:52;;;;;;;2.70;2.53;;;;;;;20.40;100.00;101121.97;5113348;28;20057;-71
2023/09/01 14:06:17;;;;;;;2.22;2.05;;;;;;;20.43;100.00;101122.22;5113634;28;20051;-71
2023/09/01 14:08:43;;;;;;;2.10;1.90;;;;;;;20.29;100.00;101134.91;5112428;28;20015;-72
2023/09/01 14:11:08;;;;;;;2.65;2.13;;;;;;;20.11;100.00;101130.88;5113520;28;20096;-71
